createdAt,value
2018-05-13T00:00:18.290Z,8.17
2018-05-13T00:02:50.513Z,7.93
2018-05-13T00:05:22.490Z,8.03
2018-05-13T00:07:54.642Z,9.50
2018-05-13T00:10:26.551Z,9.10
2018-05-13T00:12:58.453Z,8.70
2018-05-13T00:15:31.190Z,7.80
2018-05-13T00:18:03.096Z,7.07
2018-05-13T00:20:36.097Z,6.90
2018-05-13T00:23:07.994Z,6.13
2018-05-13T00:25:39.877Z,6.07
2018-05-13T00:28:11.753Z,5.97
2018-05-13T00:30:44.553Z,5.37
2018-05-13T00:33:17.221Z,5.40
2018-05-13T00:35:50.218Z,5.53
2018-05-13T00:38:22.386Z,4.80
2018-05-13T00:40:54.266Z,5.47
2018-05-13T00:43:26.410Z,5.07
2018-05-13T00:45:58.577Z,5.10
2018-05-13T00:48:30.466Z,5.40
2018-05-13T00:51:02.343Z,4.93
2018-05-13T00:53:34.301Z,4.97
2018-05-13T00:56:06.176Z,5.00
2018-05-13T00:58:38.125Z,5.40
2018-05-13T01:01:10.349Z,4.73
2018-05-13T01:03:42.250Z,4.83
2018-05-13T01:06:14.123Z,5.10
2018-05-13T01:08:46.068Z,5.53
2018-05-13T01:11:18.200Z,4.67
2018-05-13T01:13:50.362Z,5.00
2018-05-13T01:16:22.230Z,4.67
2018-05-13T01:18:54.389Z,4.80
2018-05-13T01:21:26.274Z,4.80
2018-05-13T01:23:58.157Z,4.73
2018-05-13T01:26:30.818Z,4.73
2018-05-13T01:29:02.713Z,4.73
2018-05-13T01:31:34.607Z,5.13
2018-05-13T01:34:07.273Z,5.43
2018-05-13T01:36:39.923Z,5.17
2018-05-13T01:39:11.833Z,6.00
2018-05-13T01:41:43.722Z,5.60
2018-05-13T01:44:15.609Z,5.53
2018-05-13T01:46:47.561Z,5.47
2018-05-13T01:49:19.519Z,6.03
2018-05-13T01:51:51.396Z,5.63
2018-05-13T01:54:23.345Z,5.50
2018-05-13T01:56:55.321Z,5.97
2018-05-13T01:59:27.267Z,5.80
2018-05-13T02:01:59.244Z,5.97
2018-05-13T02:04:31.247Z,6.00
2018-05-13T02:07:03.130Z,5.80
2018-05-13T02:09:35.017Z,5.50
2018-05-13T02:12:06.983Z,5.70
2018-05-13T02:14:38.873Z,5.60
2018-05-13T02:17:11.773Z,5.67
2018-05-13T02:19:43.696Z,6.00
2018-05-13T02:22:17.186Z,5.87
2018-05-13T02:24:49.069Z,5.90
2018-05-13T02:27:21.713Z,6.50
2018-05-13T02:29:53.686Z,6.27
2018-05-13T02:32:25.565Z,6.07
2018-05-13T02:34:57.763Z,6.10
2018-05-13T02:37:29.650Z,6.53
2018-05-13T02:40:01.550Z,6.93
2018-05-13T02:42:33.503Z,6.43
2018-05-13T02:45:05.450Z,6.20
2018-05-13T02:47:37.329Z,6.20
2018-05-13T02:50:10.090Z,6.07
2018-05-13T02:52:42.047Z,5.90
2018-05-13T02:55:14.171Z,5.93
2018-05-13T02:57:46.072Z,5.33
2018-05-13T03:00:18.363Z,5.13
2018-05-13T03:02:50.233Z,4.60
2018-05-13T03:05:22.179Z,3.83
2018-05-13T03:07:54.064Z,3.80
2018-05-13T03:10:26.726Z,4.20
2018-05-13T03:12:58.661Z,3.60
2018-05-13T03:15:30.575Z,3.10
2018-05-13T03:18:03.317Z,3.80
2018-05-13T03:20:35.232Z,4.27
2018-05-13T03:23:07.105Z,3.77
2018-05-13T03:25:39.013Z,4.53
2018-05-13T03:28:10.886Z,4.47
2018-05-13T03:30:43.889Z,5.03
2018-05-13T03:33:16.136Z,5.00
2018-05-13T03:35:48.325Z,4.57
2018-05-13T03:38:20.209Z,4.60
2018-05-13T03:40:52.114Z,4.97
2018-05-13T03:43:24.324Z,5.40
2018-05-13T03:45:56.214Z,5.07
2018-05-13T03:48:28.193Z,5.20
2018-05-13T03:51:00.101Z,4.70
2018-05-13T03:53:31.978Z,5.40
2018-05-13T03:56:03.961Z,5.50
2018-05-13T03:58:35.909Z,5.87
2018-05-13T04:01:08.154Z,5.33
2018-05-13T04:03:40.021Z,4.97
2018-05-13T04:06:12.176Z,5.53
2018-05-13T04:08:55.933Z,5.33
2018-05-13T04:14:44.853Z,5.10
2018-05-13T04:17:16.742Z,6.20
2018-05-13T04:19:49.385Z,6.27
2018-05-13T04:22:21.598Z,5.67
2018-05-13T04:24:53.469Z,6.23
2018-05-13T04:27:25.368Z,6.17
2018-05-13T04:29:57.245Z,6.70
2018-05-13T04:32:29.445Z,5.70
2018-05-13T04:35:01.318Z,5.70
2018-05-13T04:37:33.193Z,5.63
2018-05-13T04:40:05.077Z,5.63
2018-05-13T04:42:36.958Z,5.50
2018-05-13T04:45:09.155Z,5.90
2018-05-13T04:47:41.093Z,5.40
2018-05-13T04:50:14.716Z,6.47
2018-05-13T04:52:47.377Z,6.00
2018-05-13T04:55:20.019Z,5.77
2018-05-13T04:57:51.910Z,5.17
2018-05-13T05:00:24.550Z,5.70
2018-05-13T05:02:56.454Z,6.30
2018-05-13T05:05:29.089Z,6.33
2018-05-13T05:08:00.990Z,6.70
2018-05-13T05:10:33.182Z,6.30
2018-05-13T05:13:05.101Z,6.30
2018-05-13T05:15:36.981Z,6.90
2018-05-13T05:18:09.657Z,7.17
2018-05-13T05:20:42.561Z,6.90
2018-05-13T05:23:14.456Z,6.43
2018-05-13T05:25:46.336Z,7.40
2018-05-13T05:28:18.241Z,6.80
2018-05-13T05:30:50.121Z,8.03
2018-05-13T05:33:22.271Z,6.27
2018-05-13T05:35:54.154Z,6.53
2018-05-13T05:38:26.295Z,6.00
2018-05-13T05:40:58.179Z,6.23
2018-05-13T05:43:30.066Z,6.00
2018-05-13T05:46:01.937Z,5.93
2018-05-13T05:48:33.950Z,6.37
2018-05-13T05:51:05.826Z,6.87
2018-05-13T05:53:37.731Z,6.13
2018-05-13T05:56:09.925Z,6.10
2018-05-13T05:58:41.828Z,5.87
2018-05-13T06:01:13.699Z,5.70
2018-05-13T06:03:45.829Z,5.27
2018-05-13T06:06:17.694Z,5.87
2018-05-13T06:08:49.591Z,5.70
2018-05-13T06:11:21.481Z,6.57
2018-05-13T06:13:54.133Z,6.73
2018-05-13T06:16:26.338Z,5.43
2018-05-13T06:18:58.242Z,6.43
2018-05-13T06:21:30.125Z,6.43
2018-05-13T06:24:02.249Z,6.35
2018-05-13T06:26:34.394Z,6.57
2018-05-13T06:29:06.290Z,6.20
2018-05-13T06:31:38.158Z,6.50
2018-05-13T06:34:10.051Z,6.72
2018-05-13T06:36:42.694Z,6.78
2018-05-13T06:39:14.597Z,8.05
2018-05-13T06:41:47.234Z,8.60
2018-05-13T06:44:19.125Z,10.02
2018-05-13T06:46:51.030Z,11.10
2018-05-13T06:49:22.972Z,10.57
2018-05-13T06:51:55.862Z,10.87
2018-05-13T06:54:27.758Z,10.17
2018-05-13T06:56:59.637Z,10.90
2018-05-13T06:59:31.565Z,10.80
2018-05-13T07:02:03.442Z,13.07
2018-05-13T07:04:35.347Z,11.03
2018-05-13T07:07:07.998Z,15.07
2018-05-13T07:09:40.012Z,15.13
2018-05-13T07:12:11.905Z,15.07
2018-05-13T07:14:43.814Z,15.67
2018-05-13T07:17:16.457Z,15.63
2018-05-13T07:19:48.377Z,15.73
2018-05-13T07:22:20.269Z,14.93
2018-05-13T07:24:52.250Z,17.70
2018-05-13T07:27:24.125Z,15.50
2018-05-13T07:29:56.805Z,15.90
2018-05-13T07:32:29.446Z,15.07
2018-05-13T07:35:01.352Z,17.87
2018-05-13T07:37:33.997Z,16.03
2018-05-13T07:40:05.905Z,15.80
2018-05-13T07:42:37.782Z,16.42
2018-05-13T07:45:09.695Z,18.73
2018-05-13T07:47:42.350Z,18.58
2018-05-13T07:50:14.277Z,21.45
2018-05-13T07:52:46.193Z,21.27
2018-05-13T07:55:18.094Z,20.70
2018-05-13T07:57:50.017Z,22.33
2018-05-13T08:00:21.890Z,22.10
2018-05-13T08:02:54.549Z,22.70
2018-05-13T08:05:26.749Z,23.42
2018-05-13T08:07:58.626Z,22.67
2018-05-13T08:10:30.531Z,24.70
2018-05-13T08:13:02.415Z,25.17
2018-05-13T08:15:35.093Z,26.30
2018-05-13T08:18:07.752Z,26.60
2018-05-13T08:20:39.662Z,25.87
2018-05-13T08:23:11.549Z,27.70
2018-05-13T08:25:44.231Z,27.60
2018-05-13T08:28:16.114Z,28.90
2018-05-13T08:30:48.007Z,29.87
2018-05-13T08:33:20.645Z,29.80
2018-05-13T08:35:52.650Z,28.83
2018-05-13T08:38:25.293Z,29.67
2018-05-13T08:40:57.242Z,27.13
2018-05-13T08:43:29.359Z,29.07
2018-05-13T08:46:01.345Z,29.27
2018-05-13T08:48:33.501Z,23.07
2018-05-13T08:51:05.393Z,27.40
2018-05-13T08:53:37.293Z,27.63
2018-05-13T08:56:09.957Z,27.63
2018-05-13T08:58:41.829Z,27.17
2018-05-13T09:01:14.500Z,28.67
2018-05-13T09:03:47.156Z,27.93
2018-05-13T09:06:19.057Z,29.03
2018-05-13T09:08:50.933Z,28.87
2018-05-13T09:11:23.059Z,27.60
2018-05-13T09:13:54.942Z,27.43
2018-05-13T09:16:27.613Z,29.50
2018-05-13T09:19:00.259Z,26.30
2018-05-13T09:21:32.159Z,27.13
2018-05-13T09:24:04.793Z,30.77
2018-05-13T09:26:36.776Z,31.23
2018-05-13T09:29:08.870Z,32.53
2018-05-13T09:31:41.033Z,30.10
2018-05-13T09:34:12.909Z,33.93
2018-05-13T09:36:44.819Z,33.20
2018-05-13T09:39:16.689Z,33.00
2018-05-13T09:41:48.602Z,36.43
2018-05-13T09:44:20.483Z,35.70
2018-05-13T09:46:53.423Z,36.37
2018-05-13T09:49:25.298Z,37.43
2018-05-13T09:51:57.207Z,39.97
2018-05-13T09:54:29.409Z,39.17
2018-05-13T09:57:01.322Z,39.50
2018-05-13T09:59:33.197Z,39.43
2018-05-13T10:02:05.401Z,38.27
2018-05-13T10:04:37.566Z,38.90
2018-05-13T10:07:09.468Z,40.00
2018-05-13T10:09:41.591Z,38.33
2018-05-13T10:12:13.501Z,44.20
2018-05-13T10:14:46.186Z,42.27
2018-05-13T10:17:18.397Z,40.87
2018-05-13T10:19:50.486Z,34.03
2018-05-13T10:22:22.380Z,42.87
2018-05-13T10:24:54.331Z,44.13
2018-05-13T10:27:26.295Z,46.00
2018-05-13T10:29:58.169Z,46.77
2018-05-13T10:32:30.074Z,45.67
2018-05-13T10:35:01.946Z,45.33
2018-05-13T10:37:33.925Z,43.20
2018-05-13T10:40:05.826Z,46.30
2018-05-13T10:42:38.497Z,44.30
2018-05-13T10:45:11.162Z,46.27
2018-05-13T10:47:43.073Z,48.60
2018-05-13T10:50:14.961Z,49.77
2018-05-13T10:52:46.888Z,45.67
2018-05-13T10:55:19.057Z,44.93
2018-05-13T10:57:51.017Z,46.73
2018-05-13T11:00:22.826Z,44.83
2018-05-13T11:02:54.726Z,41.93
2018-05-13T11:05:27.369Z,44.23
2018-05-13T11:07:59.270Z,42.33
2018-05-13T11:10:31.913Z,42.33
2018-05-13T11:13:04.130Z,43.20
2018-05-13T11:15:36.001Z,46.63
2018-05-13T11:18:07.898Z,45.90
2018-05-13T11:20:39.812Z,45.60
2018-05-13T11:23:12.441Z,46.23
2018-05-13T11:25:44.321Z,42.87
2018-05-13T11:28:16.976Z,41.23
2018-05-13T11:30:48.855Z,43.63
2018-05-13T11:33:20.761Z,44.57
2018-05-13T11:35:52.639Z,45.77
2018-05-13T11:38:24.598Z,44.20
2018-05-13T11:40:56.465Z,41.97
2018-05-13T11:43:28.356Z,43.10
2018-05-13T11:46:00.229Z,43.10
2018-05-13T11:48:32.905Z,43.13
2018-05-13T11:51:05.548Z,47.23
2018-05-13T11:53:37.468Z,45.70
2018-05-13T11:56:09.345Z,43.17
2018-05-13T11:58:41.278Z,43.33
2018-05-13T12:01:13.162Z,42.70
2018-05-13T12:03:45.051Z,46.90
2018-05-13T12:06:16.942Z,43.97
2018-05-13T12:08:48.858Z,45.53
2018-05-13T12:11:20.749Z,43.37
2018-05-13T12:13:52.659Z,42.83
2018-05-13T12:16:24.526Z,43.30
2018-05-13T12:18:56.408Z,42.87
2018-05-13T12:21:28.296Z,43.23
2018-05-13T12:24:00.207Z,42.07
2018-05-13T12:26:32.086Z,42.07
2018-05-13T12:29:04.002Z,41.37
2018-05-13T12:31:35.912Z,41.13
2018-05-13T12:34:07.787Z,41.97
2018-05-13T12:36:39.658Z,40.63
2018-05-13T12:39:11.565Z,39.67
2018-05-13T12:41:43.565Z,41.00
2018-05-13T12:44:15.452Z,37.87
2018-05-13T12:46:48.102Z,38.83
2018-05-13T12:49:20.317Z,38.70
2018-05-13T12:51:53.333Z,38.90
2018-05-13T12:54:25.245Z,39.53
2018-05-13T12:56:57.874Z,37.43
2018-05-13T12:59:30.022Z,38.17
2018-05-13T13:02:01.898Z,37.47
2018-05-13T13:04:33.803Z,38.87
2018-05-13T13:07:05.669Z,40.13
2018-05-13T13:09:38.570Z,38.27
2018-05-13T13:12:10.450Z,38.20
2018-05-13T13:14:42.357Z,39.87
2018-05-13T13:17:14.453Z,36.47
2018-05-13T13:19:46.359Z,35.67
2018-05-13T13:22:18.249Z,34.40
2018-05-13T13:24:50.161Z,39.10
2018-05-13T13:27:22.076Z,38.13
2018-05-13T13:29:54.757Z,36.47
2018-05-13T13:32:27.398Z,35.10
2018-05-13T13:34:59.624Z,35.20
2018-05-13T13:37:31.502Z,35.37
2018-05-13T13:40:03.389Z,35.07
2018-05-13T13:42:35.275Z,33.30
2018-05-13T13:45:07.942Z,34.07
2018-05-13T13:47:40.048Z,32.23
2018-05-13T13:50:11.945Z,35.33
2018-05-13T13:52:43.826Z,34.17
2018-05-13T13:55:16.573Z,32.97
2018-05-13T13:57:48.446Z,32.03
2018-05-13T14:00:20.380Z,33.10
2018-05-13T14:02:52.241Z,35.07
2018-05-13T14:05:24.395Z,34.97
2018-05-13T14:07:56.270Z,36.40
2018-05-13T14:10:28.192Z,38.90
2018-05-13T14:13:00.178Z,37.97
2018-05-13T14:15:32.073Z,36.00
2018-05-13T14:18:03.965Z,37.40
2018-05-13T14:20:35.934Z,39.67
2018-05-13T14:23:07.737Z,40.83
2018-05-13T14:25:39.654Z,38.07
2018-05-13T14:28:11.529Z,36.67
2018-05-13T14:30:44.178Z,37.50
2018-05-13T14:33:16.154Z,36.27
2018-05-13T14:35:48.351Z,35.50
2018-05-13T14:38:23.048Z,32.23
2018-05-13T14:40:55.141Z,32.87
2018-05-13T14:43:26.838Z,33.13
2018-05-13T14:45:58.756Z,32.50
2018-05-13T14:48:31.432Z,32.23
2018-05-13T14:51:04.117Z,32.27
2018-05-13T14:53:36.001Z,32.13
2018-05-13T14:56:07.917Z,33.90
2018-05-13T14:58:39.782Z,37.43
2018-05-13T15:01:12.442Z,36.87
2018-05-13T15:03:44.314Z,39.43
2018-05-13T15:06:17.326Z,35.77
2018-05-13T15:08:49.492Z,38.83
2018-05-13T15:11:21.399Z,38.60
2018-05-13T15:13:53.272Z,38.13
2018-05-13T15:16:25.478Z,39.87
2018-05-13T15:18:57.355Z,40.23
2018-05-13T15:21:29.281Z,41.30
2018-05-13T15:24:01.916Z,42.20
2018-05-13T15:26:33.809Z,41.47
2018-05-13T15:29:07.239Z,39.80
2018-05-13T15:31:39.106Z,43.60
2018-05-13T15:34:11.257Z,43.60
2018-05-13T15:36:43.158Z,45.20
2018-05-13T15:39:15.033Z,45.93
2018-05-13T15:41:46.959Z,46.27
2018-05-13T15:44:18.836Z,46.10
2018-05-13T15:46:50.738Z,46.63
2018-05-13T15:49:23.426Z,45.27
2018-05-13T15:51:56.093Z,46.37
2018-05-13T15:54:28.740Z,43.87
2018-05-13T15:57:00.634Z,42.70
2018-05-13T15:59:34.038Z,43.77
2018-05-13T16:02:06.701Z,45.40
2018-05-13T16:04:38.589Z,44.53
2018-05-13T16:07:10.486Z,43.00
2018-05-13T16:09:42.620Z,43.20
2018-05-13T16:12:14.839Z,42.07
2018-05-13T16:14:46.948Z,41.13
2018-05-13T16:17:19.114Z,44.13
2018-05-13T16:19:51.014Z,44.20
2018-05-13T16:22:22.931Z,45.60
2018-05-13T16:24:55.565Z,44.47
2018-05-13T16:27:27.483Z,44.73
2018-05-13T16:29:59.413Z,44.90
2018-05-13T16:32:31.502Z,41.97
2018-05-13T16:35:03.381Z,42.83
2018-05-13T16:37:35.531Z,44.03
2018-05-13T16:40:07.406Z,43.97
2018-05-13T16:42:39.347Z,43.27
2018-05-13T16:45:11.985Z,43.37
2018-05-13T16:47:43.882Z,43.20
2018-05-13T16:50:15.774Z,41.03
2018-05-13T16:52:47.877Z,42.67
2018-05-13T16:55:19.761Z,41.70
2018-05-13T16:57:52.439Z,41.13
2018-05-13T17:00:25.142Z,42.57
2018-05-13T17:02:57.299Z,41.40
2018-05-13T17:05:29.173Z,40.63
2018-05-13T17:08:01.073Z,42.10
2018-05-13T17:10:33.184Z,41.60
2018-05-13T17:13:05.099Z,41.57
2018-05-13T17:15:36.972Z,41.17
2018-05-13T17:18:09.066Z,39.23
2018-05-13T17:20:40.990Z,41.83
2018-05-13T17:23:12.893Z,41.50
2018-05-13T17:25:44.788Z,43.73
2018-05-13T17:28:16.701Z,43.43
2018-05-13T17:30:49.338Z,44.80
2018-05-13T17:33:21.237Z,45.03
2018-05-13T17:35:53.873Z,42.80
2018-05-13T17:38:25.774Z,43.80
2018-05-13T17:40:58.416Z,43.40
2018-05-13T17:43:30.302Z,43.57
2018-05-13T17:46:02.169Z,43.97
2018-05-13T17:48:34.834Z,42.50
2018-05-13T17:51:06.713Z,42.33
2018-05-13T17:53:39.447Z,42.47
2018-05-13T17:56:12.121Z,40.83
2018-05-13T17:58:44.106Z,42.00
2018-05-13T18:01:15.982Z,38.80
2018-05-13T18:03:47.894Z,39.37
2018-05-13T18:06:20.034Z,40.37
2018-05-13T18:08:51.959Z,40.47
2018-05-13T18:11:23.838Z,40.30
2018-05-13T18:13:56.500Z,39.40
2018-05-13T18:16:28.370Z,39.53
2018-05-13T18:19:01.050Z,39.60
2018-05-13T18:21:33.791Z,40.00
2018-05-13T18:24:05.918Z,41.10
2018-05-13T18:26:37.797Z,40.80
2018-05-13T18:29:09.815Z,40.77
2018-05-13T18:31:41.697Z,40.20
2018-05-13T18:34:14.366Z,40.50
2018-05-13T18:36:47.012Z,40.67
2018-05-13T18:39:18.940Z,42.03
2018-05-13T18:41:51.546Z,42.83
2018-05-13T18:44:23.451Z,44.20
2018-05-13T18:46:56.341Z,44.47
2018-05-13T18:49:28.234Z,45.43
2018-05-13T18:52:00.108Z,46.87
2018-05-13T18:54:32.029Z,47.30
2018-05-13T18:57:03.907Z,48.77
2018-05-13T18:59:35.823Z,49.53
2018-05-13T19:02:08.474Z,50.30
2018-05-13T19:04:40.380Z,50.83
2018-05-13T19:07:13.020Z,50.37
2018-05-13T19:09:44.913Z,52.10
2018-05-13T19:12:17.584Z,52.63
2018-05-13T19:14:49.479Z,52.13
2018-05-13T19:17:21.354Z,50.93
2018-05-13T19:19:53.258Z,49.87
2018-05-13T19:22:25.468Z,51.37
2018-05-13T19:24:57.357Z,52.00
2018-05-13T19:27:29.249Z,50.50
2018-05-13T19:30:01.945Z,50.93
2018-05-13T19:32:34.569Z,51.30
2018-05-13T19:35:06.794Z,49.57
2018-05-13T19:37:38.673Z,52.97
2018-05-13T19:40:10.562Z,52.60
2018-05-13T19:42:42.442Z,54.27
2018-05-13T19:45:14.358Z,53.00
2018-05-13T19:47:46.502Z,51.27
2018-05-13T19:50:18.665Z,52.33
2018-05-13T19:52:50.564Z,50.77
2018-05-13T19:55:22.458Z,53.53
2018-05-13T19:57:54.655Z,47.60
2018-05-13T20:00:26.573Z,51.67
2018-05-13T20:02:58.537Z,45.97
2018-05-13T20:05:31.131Z,48.13
2018-05-13T20:08:03.011Z,48.07
2018-05-13T20:10:35.694Z,47.03
2018-05-13T20:13:07.582Z,48.37
2018-05-13T20:15:39.485Z,48.23
2018-05-13T20:18:11.407Z,48.97
2018-05-13T20:20:43.321Z,50.73
2018-05-13T20:23:24.067Z,47.20
2018-05-13T20:25:56.662Z,48.00
2018-05-13T20:28:29.566Z,51.50
